Tuesday, February 20, 2018, 4:37 AM EST
Back to Local

KMIV, Millville Municipal Airport

Location: Millville, NJ, United States Lat: 39.367
Local Time: 4:37 AM EST ( 9:37 GMT) Lon: -75.083
Time Zone: US/Eastern Elev: 85 ft

Show me the last for .
Show Decoded

2018-02-20 04:17 METAR KMIV 200917Z AUTO VRB04KT 1 1/4SM BR OVC001 12/11 A3033 RMK AO2 T01170111
                 =
2018-02-20 03:54 METAR KMIV 200854Z AUTO VRB03KT 1 1/4SM BR OVC002 12/11 A3032 RMK AO2 SLP267
                 T01170111 58005 =
2018-02-20 03:38 METAR KMIV 200838Z AUTO VRB03KT 1 1/2SM BR OVC003 12/11 A3033 RMK AO2 T01170111
                 =
2018-02-20 03:28 METAR KMIV 200828Z AUTO VRB04KT 2SM BR OVC003 12/11 A3033 RMK AO2 T01170111 =
2018-02-20 03:15 METAR KMIV 200815Z AUTO 00000KT 3SM BR OVC003 11/11 A3033 RMK AO2 T01110111 =
2018-02-20 02:54 METAR KMIV 200754Z AUTO VRB03KT 5SM BR OVC005 11/11 A3033 RMK AO2 CIG 004V008
                 SLP270 T01110106 =
2018-02-20 02:32 METAR KMIV 200732Z AUTO VRB03KT 6SM BR BKN008 OVC013 11/11 A3034 RMK AO2 CIG
                 003V010 T01110106 =
2018-02-20 02:22 METAR KMIV 200722Z AUTO 21004KT 6SM BR FEW006 BKN010 OVC015 12/11 A3034 RMK AO2
                 CIG 007V014 T01170111 =
2018-02-20 02:13 METAR KMIV 200713Z AUTO 22004KT 6SM BR SCT006 OVC015 12/11 A3034 RMK AO2
                 T01170106 =
2018-02-20 01:54 METAR KMIV 200654Z AUTO VRB03KT 6SM BR FEW003 BKN009 OVC015 11/11 A3034 RMK AO2
                 CIG 007V012 SLP273 T01110106 =
2018-02-20 01:42 METAR KMIV 200642Z AUTO VRB03KT 6SM BR FEW003 BKN009 OVC085 11/11 A3034 RMK AO2
                 T01110106 =
2018-02-20 01:35 METAR KMIV 200635Z AUTO 00000KT 6SM BR SCT003 BKN016 OVC090 11/11 A3034 RMK AO2
                 T01110106 =
2018-02-20 00:54 METAR KMIV 200554Z AUTO 00000KT 3SM BR OVC002 11/10 A3034 RMK AO2 SLP272
                 T01060100 10111 20100 58005 =
2018-02-19 23:54 METAR KMIV 200454Z AUTO 19003KT 3SM BR OVC002 10/09 A3035 RMK AO2 SLP276
                 T01000094 401171028 =
2018-02-19 22:54 METAR KMIV 200354Z AUTO 00000KT 4SM BR OVC002 10/10 A3036 RMK AO2 SLP278
                 T01000100 =
2018-02-19 21:54 METAR KMIV 200254Z AUTO VRB03KT 4SM BR OVC003 11/10 A3035 RMK AO2 SLP277
                 T01060100 56003 =
2018-02-19 21:16 METAR KMIV 200216Z AUTO 00000KT 9SM OVC004 11/10 A3036 RMK AO2 T01060100 =
2018-02-19 20:54 METAR KMIV 200154Z AUTO VRB04KT 10SM OVC005 11/09 A3035 RMK AO2 SLP277 T01060094
                 =
2018-02-19 19:54 METAR KMIV 200054Z AUTO VRB04KT 10SM OVC007 11/10 A3035 RMK AO2 SLP277 T01110100
                 =
2018-02-19 19:17 METAR KMIV 200017Z AUTO 16004KT 10SM OVC008 11/09 A3036 RMK AO2 CIG 006V010
                 T01110094 =
2018-02-19 18:54 METAR KMIV 192354Z AUTO 17004KT 10SM OVC011 11/09 A3036 RMK AO2 SLP281 T01060089
                 10117 20089 58001 =
2018-02-19 18:04 METAR KMIV 192304Z AUTO VRB03KT 10SM BKN013 OVC019 11/08 A3036 RMK AO2 T01060083
                 =
2018-02-19 17:54 METAR KMIV 192254Z AUTO 16004KT 10SM OVC016 10/08 A3035 RMK AO2 SLP277 T01000083
                 =
2018-02-19 16:54 METAR KMIV 192154Z AUTO VRB03KT 10SM OVC020 11/08 A3038 RMK AO2 SLP287 T01060083
                 =
2018-02-19 16:01 METAR KMIV 192101Z AUTO VRB04KT 10SM OVC029 11/08 A3036 RMK AO2 T01110083 =
2018-02-19 15:54 METAR KMIV 192054Z AUTO 18005KT 10SM OVC031 11/08 A3037 RMK AO2 SLP282 T01110078
                 56024 =
2018-02-19 14:54 METAR KMIV 191954Z AUTO VRB05KT 10SM OVC035 11/07 A3038 RMK AO2 SLP287 T01060072
                 =
2018-02-19 14:11 METAR KMIV 191911Z AUTO 17006KT 10SM SCT019 OVC033 09/07 A3039 RMK AO2 T00940067
                 =
2018-02-19 13:54 METAR KMIV 191854Z AUTO 17006KT 10SM BKN018 OVC033 09/07 A3040 RMK AO2 SLP295
                 T00940067 =
2018-02-19 12:54 METAR KMIV 191754Z AUTO VRB04KT 10SM BKN022 OVC031 09/06 A3044 RMK AO2 RAB18E46
                 SLP306 P0000 60000 T00890061 10106 21011 58021 =
2018-02-19 12:46 METAR KMIV 191746Z AUTO 17004KT 10SM BKN022 OVC031 09/07 A3044 RMK AO2 RAB18E46
                 P0000 T00890067 =
2018-02-19 11:54 METAR KMIV 191654Z AUTO 18007KT 150V210 10SM OVC040 09/05 A3047 RMK AO2 SLP318
                 T00940050 =
2018-02-19 10:54 METAR KMIV 191554Z AUTO 18007KT 10SM BKN050 OVC090 10/04 A3049 RMK AO2 SLP325
                 T01000044 =
2018-02-19 09:54 METAR KMIV 191454Z AUTO VRB03KT 10SM FEW050 09/04 A3050 RMK AO2 SLP327 T00890039
                 58004 =
2018-02-19 08:54 METAR KMIV 191354Z AUTO 16007KT 10SM CLR 06/03 A3050 RMK AO2 SLP327 T00610033 =
2018-02-19 07:54 METAR KMIV 191254Z AUTO 00000KT 5SM BR CLR 01/00 A3051 RMK AO2 SLP333 T00110000
                 =
2018-02-19 06:54 METAR KMIV 191154Z AUTO 00000KT 3SM BR CLR M01/M02 A3051 RMK AO2 SLP331 I1000
                 I6000 T10111022 10011 21028 51004 =
2018-02-19 06:36 METAR KMIV 191136Z AUTO 00000KT 3SM BR CLR M01/M02 A3049 RMK AO2 I1000 T10061017
                 =
2018-02-19 06:31 METAR KMIV 191131Z AUTO 00000KT 1 3/4SM BR CLR M01/M02 A3050 RMK AO2 I1000
                 T10111017 =
2018-02-19 06:15 METAR KMIV 191115Z AUTO 00000KT 2 1/2SM BR CLR M01/M02 A3051 RMK AO2 I1000
                 T10111017 =
2018-02-19 05:59 METAR KMIV 191059Z AUTO 00000KT 3SM BR CLR M01/M02 A3050 RMK AO2 T10111017 =
2018-02-19 05:54 METAR KMIV 191054Z AUTO 00000KT 1 1/2SM BR CLR M01/M01 A3050 RMK AO2 SLP329
                 T10061011 =
2018-02-19 05:49 METAR KMIV 191049Z AUTO 00000KT 1 3/4SM BR CLR M01/M01 A3051 RMK AO2 =
2018-02-19 04:54 METAR KMIV 190954Z AUTO 00000KT 7SM CLR 00/M01 A3051 RMK AO2 SLP332 T00001011 =

Support USWX by starting your Amazon purchase here.